createdAt,value
2019-06-20T00:02:01.957Z,98.74
2019-06-20T00:05:07.158Z,98.60
2019-06-20T00:08:13.575Z,98.38
2019-06-20T00:11:17.895Z,98.38
2019-06-20T00:14:22.221Z,98.74
2019-06-20T00:17:26.526Z,98.58
2019-06-20T00:20:30.863Z,98.59
2019-06-20T00:23:35.177Z,98.74
2019-06-20T00:26:39.498Z,98.83
2019-06-20T00:29:43.794Z,98.86
2019-06-20T00:32:48.175Z,98.85
2019-06-20T00:35:52.685Z,98.78
2019-06-20T00:38:56.989Z,98.89
2019-06-20T00:42:01.322Z,99.14
2019-06-20T00:45:06.187Z,99.32
2019-06-20T00:48:10.536Z,99.50
2019-06-20T00:51:15.940Z,99.58
2019-06-20T00:54:20.263Z,99.83
2019-06-20T00:57:24.586Z,99.96
2019-06-20T01:00:28.861Z,99.97
2019-06-20T01:03:33.168Z,99.98
2019-06-20T01:06:37.584Z,99.98
2019-06-20T01:09:41.883Z,100.00
2019-06-20T01:12:46.196Z,100.00
2019-06-20T01:15:52.883Z,100.00
2019-06-20T01:18:57.332Z,100.00
2019-06-20T01:22:01.718Z,100.00
2019-06-20T01:25:07.095Z,100.00
2019-06-20T01:28:11.419Z,100.00
2019-06-20T01:31:15.852Z,100.00
2019-06-20T01:34:20.169Z,100.00
2019-06-20T01:37:24.499Z,100.00
2019-06-20T01:40:30.295Z,100.00
2019-06-20T01:43:49.567Z,100.00
2019-06-20T01:46:40.646Z,100.00
2019-06-20T01:49:44.960Z,100.00
2019-06-20T01:52:49.382Z,100.00
2019-06-20T01:55:53.877Z,100.00
2019-06-20T01:58:58.214Z,100.00
2019-06-20T02:02:03.766Z,100.00
2019-06-20T02:05:09.448Z,100.00
2019-06-20T02:08:13.805Z,100.00
2019-06-20T02:11:18.193Z,100.00
2019-06-20T02:14:22.505Z,100.00
2019-06-20T02:17:28.305Z,100.00
2019-06-20T02:20:36.515Z,100.00
2019-06-20T02:23:40.892Z,100.00
2019-06-20T02:26:45.231Z,100.00
2019-06-20T02:29:49.605Z,100.00
2019-06-20T02:32:53.923Z,100.00
2019-06-20T02:35:58.282Z,100.00
2019-06-20T02:39:02.626Z,100.00
2019-06-20T02:42:07.147Z,100.00
2019-06-20T02:45:12.131Z,100.00
2019-06-20T02:48:16.422Z,100.00
2019-06-20T02:51:24.708Z,100.00
2019-06-20T02:54:29.507Z,100.00
2019-06-20T02:57:34.012Z,100.00
2019-06-20T03:00:58.392Z,100.00
2019-06-20T03:04:02.759Z,100.00
2019-06-20T03:07:07.055Z,100.00
2019-06-20T03:10:11.975Z,100.00
2019-06-20T03:13:16.338Z,100.00
2019-06-20T03:16:20.654Z,100.00
2019-06-20T03:19:25.065Z,100.00
2019-06-20T03:22:29.394Z,100.00
2019-06-20T03:25:33.715Z,100.00
2019-06-20T03:28:38.055Z,100.00
2019-06-20T03:31:42.410Z,98.79
2019-06-20T03:34:46.716Z,96.77
2019-06-20T03:37:52.334Z,96.09
2019-06-20T03:40:56.671Z,95.83
2019-06-20T03:44:01.104Z,95.21
2019-06-20T03:47:05.398Z,93.30
2019-06-20T03:50:11.595Z,89.25
2019-06-20T03:53:15.936Z,86.40
2019-06-20T03:56:21.030Z,85.36
2019-06-20T03:59:25.337Z,84.66
2019-06-20T04:02:30.675Z,85.31
2019-06-20T04:05:35.917Z,86.75
2019-06-20T04:08:40.348Z,88.51
2019-06-20T04:11:44.649Z,90.91
2019-06-20T04:14:49.321Z,92.43
2019-06-20T04:17:53.770Z,93.36
2019-06-20T04:20:58.023Z,94.21
2019-06-20T04:24:02.354Z,94.99
2019-06-20T04:27:06.690Z,95.46
2019-06-20T04:30:11.607Z,95.97
2019-06-20T04:33:15.915Z,96.47
2019-06-20T04:36:20.836Z,96.56
2019-06-20T04:39:25.206Z,96.44
2019-06-20T04:42:29.529Z,96.34
2019-06-20T04:45:48.785Z,96.34
2019-06-20T04:48:53.115Z,96.41
2019-06-20T04:51:57.431Z,96.42
2019-06-20T04:55:01.763Z,96.45
2019-06-20T04:58:06.158Z,96.56
2019-06-20T05:01:10.514Z,96.73
2019-06-20T05:04:14.795Z,96.94
2019-06-20T05:07:20.510Z,96.70
2019-06-20T05:10:24.824Z,95.60
2019-06-20T05:13:29.121Z,95.85
2019-06-20T05:16:33.505Z,95.58
2019-06-20T05:19:38.006Z,95.77
2019-06-20T05:22:42.335Z,95.88
2019-06-20T05:25:47.643Z,95.37
2019-06-20T05:28:51.945Z,95.42
2019-06-20T05:31:56.271Z,95.07
2019-06-20T05:35:02.943Z,95.33
2019-06-20T05:38:06.595Z,95.50
2019-06-20T05:41:10.870Z,95.69
2019-06-20T05:44:15.192Z,95.93
2019-06-20T05:47:19.514Z,95.65
2019-06-20T05:50:23.895Z,95.33
2019-06-20T05:53:28.943Z,94.76
2019-06-20T05:56:34.788Z,94.58
2019-06-20T05:59:39.056Z,94.73
2019-06-20T06:02:43.364Z,93.81
2019-06-20T06:05:47.690Z,93.42
2019-06-20T06:08:51.994Z,93.61
2019-06-20T06:11:56.290Z,93.71
2019-06-20T06:15:01.098Z,92.63
2019-06-20T06:18:05.456Z,91.80
2019-06-20T06:21:11.063Z,92.03
2019-06-20T06:24:15.383Z,91.62
2019-06-20T06:27:22.228Z,91.01
2019-06-20T06:30:26.813Z,90.82
2019-06-20T06:33:32.128Z,89.61
2019-06-20T06:36:36.418Z,88.39
2019-06-20T06:39:43.475Z,86.23
2019-06-20T06:42:46.873Z,85.91
2019-06-20T06:45:51.176Z,86.40
2019-06-20T06:48:55.490Z,87.53
2019-06-20T06:51:59.833Z,88.15
2019-06-20T06:55:04.415Z,87.80
2019-06-20T06:58:10.720Z,87.17
2019-06-20T07:01:16.428Z,87.03
2019-06-20T07:04:20.841Z,85.88
2019-06-20T07:07:25.125Z,86.02
2019-06-20T07:10:29.775Z,85.86
2019-06-20T07:13:34.164Z,85.46
2019-06-20T07:16:38.460Z,83.84
2019-06-20T07:19:42.770Z,83.23
2019-06-20T07:22:47.086Z,84.19
2019-06-20T07:25:51.426Z,84.67
2019-06-20T07:28:55.723Z,84.96
2019-06-20T07:32:00.027Z,86.27
2019-06-20T07:35:04.820Z,85.56
2019-06-20T07:38:10.219Z,85.95
2019-06-20T07:41:14.524Z,84.63
2019-06-20T07:44:18.825Z,84.84
2019-06-20T07:47:25.062Z,81.64
2019-06-20T07:50:29.373Z,80.55
2019-06-20T07:53:34.661Z,80.54
2019-06-20T07:56:38.997Z,80.90
2019-06-20T07:59:43.305Z,80.70
2019-06-20T08:02:47.791Z,80.50
2019-06-20T08:05:52.092Z,80.74
2019-06-20T08:08:56.415Z,78.86
2019-06-20T08:12:00.761Z,77.11
2019-06-20T08:15:14.898Z,77.79
2019-06-20T08:18:11.907Z,78.46
2019-06-20T08:21:17.195Z,79.04
2019-06-20T08:24:21.516Z,80.58
2019-06-20T08:27:43.580Z,79.79
2019-06-20T08:30:47.883Z,80.41
2019-06-20T08:33:52.190Z,82.10
2019-06-20T08:36:57.800Z,83.06
2019-06-20T08:40:02.542Z,81.85
2019-06-20T08:43:06.892Z,82.07
2019-06-20T08:46:11.211Z,81.57
2019-06-20T08:49:15.617Z,80.12
2019-06-20T08:52:19.885Z,80.61
2019-06-20T08:55:24.403Z,80.25
2019-06-20T08:58:29.510Z,80.84
2019-06-20T09:01:33.830Z,80.38
2019-06-20T09:04:38.144Z,78.65
2019-06-20T09:07:42.430Z,77.92
2019-06-20T09:10:46.725Z,78.27
2019-06-20T09:13:51.017Z,78.20
2019-06-20T09:16:56.438Z,75.21
2019-06-20T09:20:00.823Z,75.16
2019-06-20T09:23:05.660Z,75.82
2019-06-20T09:26:09.969Z,77.55
2019-06-20T09:29:14.301Z,78.50
2019-06-20T09:32:18.618Z,80.02
2019-06-20T09:35:23.225Z,80.43
2019-06-20T09:38:27.523Z,82.32
2019-06-20T09:41:31.855Z,82.57
2019-06-20T09:44:36.176Z,82.14
2019-06-20T09:47:40.519Z,82.07
2019-06-20T09:50:44.857Z,82.64
2019-06-20T09:53:49.892Z,82.36
2019-06-20T09:56:55.378Z,83.14
2019-06-20T10:00:09.766Z,84.14
2019-06-20T10:03:07.055Z,83.67
2019-06-20T10:06:14.392Z,83.41
2019-06-20T10:09:17.404Z,84.02
2019-06-20T10:12:21.685Z,84.50
2019-06-20T10:15:27.298Z,85.41
2019-06-20T10:18:31.579Z,84.55
2019-06-20T10:21:37.682Z,84.08
2019-06-20T10:24:41.978Z,83.94
2019-06-20T10:27:49.630Z,82.89
2019-06-20T10:30:55.208Z,83.99
2019-06-20T10:33:59.525Z,83.68
2019-06-20T10:37:03.970Z,82.84
2019-06-20T10:40:11.007Z,82.55
2019-06-20T10:43:15.325Z,83.27
2019-06-20T10:46:22.564Z,83.90
2019-06-20T10:49:27.033Z,83.98
2019-06-20T10:52:31.348Z,83.66
2019-06-20T10:55:35.804Z,82.06
2019-06-20T10:58:41.509Z,81.22
2019-06-20T11:01:46.721Z,81.79
2019-06-20T11:04:51.138Z,82.66
2019-06-20T11:07:55.440Z,82.92
2019-06-20T11:10:59.734Z,83.50
2019-06-20T11:14:04.006Z,84.29
2019-06-20T11:17:08.280Z,85.23
2019-06-20T11:20:13.483Z,84.25
2019-06-20T11:23:17.893Z,83.89
2019-06-20T11:26:22.419Z,83.04
2019-06-20T11:29:26.730Z,81.70
2019-06-20T11:32:31.030Z,82.84
2019-06-20T11:35:37.435Z,82.51
2019-06-20T11:38:42.542Z,82.56
2019-06-20T11:41:48.433Z,82.94
2019-06-20T11:44:53.135Z,82.38
2019-06-20T11:47:57.408Z,82.96
2019-06-20T11:51:01.766Z,83.44
2019-06-20T11:54:06.105Z,82.55
2019-06-20T11:57:10.502Z,82.92
2019-06-20T12:00:15.502Z,82.76
2019-06-20T12:03:19.809Z,80.80
2019-06-20T12:06:24.102Z,81.02
2019-06-20T12:09:28.392Z,81.33
2019-06-20T12:12:32.721Z,80.81
2019-06-20T12:15:38.087Z,81.31
2019-06-20T12:18:43.175Z,81.23
2019-06-20T12:21:47.460Z,80.89
2019-06-20T12:24:51.778Z,80.46
2019-06-20T12:27:56.067Z,80.20
2019-06-20T12:31:00.355Z,80.53
2019-06-20T12:34:04.625Z,79.54
2019-06-20T12:37:08.932Z,80.26
2019-06-20T12:40:15.076Z,81.56
2019-06-20T12:43:19.379Z,82.15
2019-06-20T12:46:23.648Z,82.08
2019-06-20T12:49:28.056Z,81.79
2019-06-20T12:52:32.330Z,81.16
2019-06-20T12:55:37.268Z,80.32
2019-06-20T12:58:44.443Z,80.24
2019-06-20T13:01:49.922Z,79.76
2019-06-20T13:04:55.070Z,80.28
2019-06-20T13:07:59.491Z,79.67
2019-06-20T13:11:03.775Z,80.04
2019-06-20T13:14:08.072Z,80.03
2019-06-20T13:17:13.540Z,78.84
2019-06-20T13:20:18.143Z,77.42
2019-06-20T13:23:22.431Z,76.33
2019-06-20T13:26:26.724Z,76.03
2019-06-20T13:29:31.046Z,76.54
2019-06-20T13:32:35.364Z,75.36
2019-06-20T13:35:41.623Z,75.08
2019-06-20T13:38:46.703Z,73.99
2019-06-20T13:41:51.030Z,73.81
2019-06-20T13:44:55.332Z,74.02
2019-06-20T13:47:59.609Z,73.29
2019-06-20T13:51:03.884Z,74.28
2019-06-20T13:54:08.244Z,73.09
2019-06-20T13:57:12.545Z,74.20
2019-06-20T14:00:17.595Z,74.18
2019-06-20T14:03:22.009Z,75.37
2019-06-20T14:06:26.273Z,76.29
2019-06-20T14:09:30.676Z,76.46
2019-06-20T14:12:34.947Z,76.20
2019-06-20T14:15:39.238Z,75.62
2019-06-20T14:18:44.561Z,73.77
2019-06-20T14:21:50.642Z,71.68
2019-06-20T14:24:55.507Z,73.99
2019-06-20T14:27:59.911Z,73.32
2019-06-20T14:31:05.231Z,73.54
2019-06-20T14:34:09.531Z,73.33
2019-06-20T14:37:13.818Z,72.96
2019-06-20T14:40:19.502Z,73.52
2019-06-20T14:43:23.793Z,73.65
2019-06-20T14:46:29.183Z,73.69
2019-06-20T14:49:33.476Z,72.09
2019-06-20T14:52:37.788Z,72.02
2019-06-20T14:55:44.239Z,71.78
2019-06-20T14:58:48.734Z,71.76
2019-06-20T15:01:53.064Z,71.69
2019-06-20T15:04:57.459Z,71.91
2019-06-20T15:08:01.744Z,70.75
2019-06-20T15:11:06.027Z,70.00
2019-06-20T15:14:10.409Z,70.43
2019-06-20T15:17:14.695Z,69.98
2019-06-20T15:20:19.679Z,67.62
2019-06-20T15:23:23.968Z,67.14
2019-06-20T15:26:28.268Z,65.13
2019-06-20T15:29:32.566Z,64.27
2019-06-20T15:32:36.852Z,61.94
2019-06-20T15:35:41.180Z,61.39
2019-06-20T15:38:47.660Z,62.08
2019-06-20T15:41:51.740Z,63.13
2019-06-20T15:44:56.026Z,63.84
2019-06-20T15:48:00.409Z,63.29
2019-06-20T15:51:04.823Z,65.16
2019-06-20T15:54:09.124Z,64.63
2019-06-20T15:57:13.434Z,64.78
2019-06-20T16:00:18.567Z,66.45
2019-06-20T16:03:22.890Z,65.41
2019-06-20T16:06:27.167Z,65.87
2019-06-20T16:09:31.463Z,65.14
2019-06-20T16:12:35.840Z,65.12
2019-06-20T16:15:40.373Z,65.50
2019-06-20T16:18:44.748Z,64.42
2019-06-20T16:21:50.839Z,65.21
2019-06-20T16:24:55.118Z,65.01
2019-06-20T16:27:59.420Z,66.15
2019-06-20T16:31:08.726Z,67.62
2019-06-20T16:34:09.728Z,64.11
2019-06-20T16:37:14.114Z,60.67
2019-06-20T16:40:24.258Z,57.94
2019-06-20T16:43:28.544Z,57.74
2019-06-20T16:46:32.832Z,59.39
2019-06-20T16:49:37.110Z,61.68
2019-06-20T16:52:41.500Z,63.45
2019-06-20T16:55:45.788Z,65.80
2019-06-20T16:58:50.082Z,64.74
2019-06-20T17:01:54.369Z,63.04
2019-06-20T17:04:58.657Z,61.52
2019-06-20T17:08:02.992Z,62.96
2019-06-20T17:11:07.389Z,61.91
2019-06-20T17:14:11.689Z,63.83
2019-06-20T17:17:15.976Z,62.39
2019-06-20T17:20:20.581Z,62.00
2019-06-20T17:23:25.064Z,63.86
2019-06-20T17:26:29.387Z,66.04
2019-06-20T17:29:33.669Z,68.28
2019-06-20T17:32:38.102Z,69.19
2019-06-20T17:35:42.469Z,70.71
2019-06-20T17:38:46.978Z,70.57
2019-06-20T17:41:55.574Z,71.54
2019-06-20T17:44:58.512Z,72.06
2019-06-20T17:48:02.820Z,71.72
2019-06-20T17:51:08.930Z,71.12
2019-06-20T17:54:13.251Z,70.81
2019-06-20T17:57:17.553Z,71.66
2019-06-20T18:00:25.005Z,71.89
2019-06-20T18:03:29.354Z,73.17
2019-06-20T18:06:33.661Z,72.30
2019-06-20T18:09:39.287Z,72.74
2019-06-20T18:12:43.587Z,72.50
2019-06-20T18:15:47.911Z,73.43
2019-06-20T18:18:52.216Z,73.78
2019-06-20T18:21:56.494Z,73.84
2019-06-20T18:25:00.994Z,73.77
2019-06-20T18:28:05.477Z,73.26
2019-06-20T18:31:09.838Z,73.34
2019-06-20T18:34:28.887Z,74.12
2019-06-20T18:37:31.272Z,74.18
2019-06-20T18:40:28.089Z,74.92
2019-06-20T18:43:32.370Z,76.01
2019-06-20T18:46:36.705Z,75.84
2019-06-20T18:49:41.070Z,75.66
2019-06-20T18:52:52.116Z,76.15
2019-06-20T18:55:52.456Z,76.31
2019-06-20T18:58:56.751Z,76.58
2019-06-20T19:02:02.174Z,76.94
2019-06-20T19:05:07.510Z,77.84
2019-06-20T19:08:11.797Z,77.88
2019-06-20T19:11:16.142Z,78.61
2019-06-20T19:14:20.547Z,78.36
2019-06-20T19:17:24.876Z,78.90
2019-06-20T19:20:29.162Z,78.78
2019-06-20T19:23:33.878Z,79.61
2019-06-20T19:26:38.310Z,80.06
2019-06-20T19:29:42.744Z,80.34
2019-06-20T19:32:47.833Z,81.21
2019-06-20T19:35:52.729Z,81.58
2019-06-20T19:38:57.848Z,81.80
2019-06-20T19:42:02.850Z,81.48
2019-06-20T19:45:09.140Z,81.22
2019-06-20T19:48:16.434Z,81.30
2019-06-20T19:51:21.370Z,81.58
2019-06-20T19:54:25.773Z,81.97
2019-06-20T19:57:30.111Z,82.26
2019-06-20T20:00:34.480Z,82.55
2019-06-20T20:03:40.240Z,83.22
2019-06-20T20:06:44.535Z,83.25
2019-06-20T20:09:48.851Z,83.03
2019-06-20T20:12:53.143Z,83.01
2019-06-20T20:15:57.462Z,82.90
2019-06-20T20:19:01.855Z,82.60
2019-06-20T20:22:06.711Z,82.65
2019-06-20T20:25:11.535Z,82.26
2019-06-20T20:28:15.845Z,82.83
2019-06-20T20:31:20.132Z,83.49
2019-06-20T20:34:24.425Z,83.95
2019-06-20T20:37:28.705Z,83.63
2019-06-20T20:40:34.117Z,84.13
2019-06-20T20:43:38.415Z,84.31
2019-06-20T20:46:43.923Z,84.58
2019-06-20T20:49:48.193Z,85.35
2019-06-20T20:52:52.575Z,85.93
2019-06-20T20:55:56.907Z,86.01
2019-06-20T20:59:01.288Z,86.19
2019-06-20T21:02:06.612Z,86.58
2019-06-20T21:05:10.902Z,86.55
2019-06-20T21:08:15.265Z,87.01
2019-06-20T21:11:19.579Z,87.34
2019-06-20T21:14:23.911Z,87.22
2019-06-20T21:17:28.224Z,87.37
2019-06-20T21:20:32.541Z,88.10
2019-06-20T21:23:36.837Z,88.22
2019-06-20T21:26:49.462Z,88.08
2019-06-20T21:29:47.298Z,88.20
2019-06-20T21:32:53.438Z,88.77
2019-06-20T21:36:07.903Z,88.99
2019-06-20T21:39:05.366Z,89.27
2019-06-20T21:42:09.745Z,89.56
2019-06-20T21:45:14.250Z,89.83
2019-06-20T21:48:18.546Z,90.14
2019-06-20T21:51:22.843Z,90.32
2019-06-20T21:54:27.139Z,90.57
2019-06-20T21:57:31.445Z,90.63
2019-06-20T22:00:40.646Z,90.83
2019-06-20T22:03:44.941Z,90.67
2019-06-20T22:06:49.253Z,91.00
2019-06-20T22:09:53.534Z,91.52
2019-06-20T22:12:57.828Z,91.89
2019-06-20T22:16:02.112Z,92.04
2019-06-20T22:19:06.385Z,92.97
2019-06-20T22:22:10.664Z,93.43
2019-06-20T22:25:15.349Z,93.42
2019-06-20T22:28:19.792Z,93.62
2019-06-20T22:31:25.302Z,93.71
2019-06-20T22:34:29.576Z,93.50
2019-06-20T22:37:33.838Z,93.45
2019-06-20T22:40:38.545Z,93.48
2019-06-20T22:43:42.858Z,93.38
2019-06-20T22:46:47.149Z,93.82
2019-06-20T22:49:51.458Z,93.79
2019-06-20T22:52:55.749Z,93.88
2019-06-20T22:56:00.145Z,93.98
2019-06-20T22:59:04.532Z,93.95
2019-06-20T23:02:08.878Z,93.97
2019-06-20T23:05:13.504Z,94.06
2019-06-20T23:08:17.867Z,94.28
2019-06-20T23:11:22.148Z,94.39
2019-06-20T23:14:26.453Z,94.69
2019-06-20T23:17:30.934Z,95.06
2019-06-20T23:20:35.369Z,95.20
2019-06-20T23:23:39.638Z,95.67
2019-06-20T23:26:43.922Z,96.18
2019-06-20T23:29:48.317Z,96.71
2019-06-20T23:32:52.665Z,97.43
2019-06-20T23:35:56.968Z,97.86
2019-06-20T23:39:01.365Z,98.15
2019-06-20T23:42:05.857Z,98.24
2019-06-20T23:45:10.577Z,98.17
2019-06-20T23:48:14.859Z,98.30
2019-06-20T23:51:25.364Z,98.22
2019-06-20T23:54:26.221Z,98.22
2019-06-20T23:57:30.491Z,98.54
